sensor_id;sensor_type;location;lat;lon;timestamp;P1;durP1;ratioP1;P2;durP2;ratioP2
18649;SDS011;9454;53.516;10.478;2022-09-09T00:00:46;12.20;;;7.50;;
18649;SDS011;9454;53.516;10.478;2022-09-09T00:03:52;14.27;;;8.23;;
18649;SDS011;9454;53.516;10.478;2022-09-09T00:11:45;17.42;;;7.75;;
18649;SDS011;9454;53.516;10.478;2022-09-09T00:14:50;11.90;;;7.18;;
18649;SDS011;9454;53.516;10.478;2022-09-09T00:17:56;16.13;;;8.93;;
18649;SDS011;9454;53.516;10.478;2022-09-09T00:21:02;13.15;;;8.00;;
18649;SDS011;9454;53.516;10.478;2022-09-09T00:24:09;11.35;;;7.68;;
18649;SDS011;9454;53.516;10.478;2022-09-09T00:27:16;13.68;;;8.80;;
18649;SDS011;9454;53.516;10.478;2022-09-09T00:30:22;12.48;;;7.97;;
18649;SDS011;9454;53.516;10.478;2022-09-09T00:33:26;12.23;;;8.35;;
18649;SDS011;9454;53.516;10.478;2022-09-09T00:36:29;16.67;;;7.32;;
18649;SDS011;9454;53.516;10.478;2022-09-09T00:39:34;12.43;;;8.10;;
18649;SDS011;9454;53.516;10.478;2022-09-09T00:42:41;14.32;;;7.93;;
18649;SDS011;9454;53.516;10.478;2022-09-09T00:45:51;15.07;;;8.38;;
18649;SDS011;9454;53.516;10.478;2022-09-09T00:49:00;14.07;;;8.40;;
18649;SDS011;9454;53.516;10.478;2022-09-09T00:52:08;13.77;;;9.23;;
18649;SDS011;9454;53.516;10.478;2022-09-09T00:55:15;16.10;;;9.43;;
18649;SDS011;9454;53.516;10.478;2022-09-09T00:58:20;15.00;;;9.55;;
18649;SDS011;9454;53.516;10.478;2022-09-09T01:01:22;15.40;;;8.65;;
18649;SDS011;9454;53.516;10.478;2022-09-09T01:04:28;13.38;;;8.68;;
18649;SDS011;9454;53.516;10.478;2022-09-09T01:07:32;14.35;;;9.50;;
18649;SDS011;9454;53.516;10.478;2022-09-09T01:10:36;12.88;;;7.90;;
18649;SDS011;9454;53.516;10.478;2022-09-09T01:13:42;12.00;;;7.72;;
18649;SDS011;9454;53.516;10.478;2022-09-09T01:16:49;14.88;;;8.40;;
18649;SDS011;9454;53.516;10.478;2022-09-09T01:20:01;15.90;;;8.10;;
18649;SDS011;9454;53.516;10.478;2022-09-09T01:23:15;15.63;;;8.02;;
18649;SDS011;9454;53.516;10.478;2022-09-09T01:26:30;13.48;;;7.65;;
18649;SDS011;9454;53.516;10.478;2022-09-09T01:29:36;16.15;;;8.45;;
18649;SDS011;9454;53.516;10.478;2022-09-09T01:32:40;14.02;;;8.70;;
18649;SDS011;9454;53.516;10.478;2022-09-09T01:35:45;15.60;;;8.85;;
18649;SDS011;9454;53.516;10.478;2022-09-09T01:38:51;14.15;;;7.80;;
18649;SDS011;9454;53.516;10.478;2022-09-09T01:41:55;15.40;;;8.10;;
18649;SDS011;9454;53.516;10.478;2022-09-09T01:44:58;16.80;;;8.00;;
18649;SDS011;9454;53.516;10.478;2022-09-09T01:48:01;22.33;;;8.68;;
18649;SDS011;9454;53.516;10.478;2022-09-09T01:51:17;16.70;;;7.63;;
18649;SDS011;9454;53.516;10.478;2022-09-09T01:54:22;13.02;;;8.18;;
18649;SDS011;9454;53.516;10.478;2022-09-09T02:01:24;12.88;;;8.05;;
18649;SDS011;9454;53.516;10.478;2022-09-09T02:04:36;12.63;;;7.82;;
18649;SDS011;9454;53.516;10.478;2022-09-09T02:07:44;15.63;;;7.15;;
18649;SDS011;9454;53.516;10.478;2022-09-09T02:11:04;10.93;;;7.38;;
18649;SDS011;9454;53.516;10.478;2022-09-09T02:19:02;10.88;;;7.25;;
18649;SDS011;9454;53.516;10.478;2022-09-09T02:22:22;14.73;;;7.00;;
18649;SDS011;9454;53.516;10.478;2022-09-09T02:25:28;13.23;;;6.93;;
18649;SDS011;9454;53.516;10.478;2022-09-09T02:28:44;10.30;;;6.43;;
18649;SDS011;9454;53.516;10.478;2022-09-09T02:31:47;10.73;;;6.60;;
18649;SDS011;9454;53.516;10.478;2022-09-09T02:34:58;11.95;;;7.60;;
18649;SDS011;9454;53.516;10.478;2022-09-09T02:38:03;9.45;;;6.38;;
18649;SDS011;9454;53.516;10.478;2022-09-09T02:41:06;11.90;;;6.45;;
18649;SDS011;9454;53.516;10.478;2022-09-09T02:44:13;18.77;;;7.47;;
18649;SDS011;9454;53.516;10.478;2022-09-09T02:47:20;13.80;;;6.75;;
18649;SDS011;9454;53.516;10.478;2022-09-09T02:50:35;13.65;;;7.75;;
18649;SDS011;9454;53.516;10.478;2022-09-09T02:53:42;20.83;;;7.30;;
18649;SDS011;9454;53.516;10.478;2022-09-09T02:56:48;14.15;;;7.00;;
18649;SDS011;9454;53.516;10.478;2022-09-09T02:59:53;10.85;;;6.85;;
18649;SDS011;9454;53.516;10.478;2022-09-09T03:02:58;13.02;;;7.25;;
18649;SDS011;9454;53.516;10.478;2022-09-09T03:06:02;10.60;;;6.68;;
18649;SDS011;9454;53.516;10.478;2022-09-09T03:09:06;12.73;;;6.82;;
18649;SDS011;9454;53.516;10.478;2022-09-09T03:12:12;13.98;;;7.95;;
18649;SDS011;9454;53.516;10.478;2022-09-09T03:15:32;12.52;;;6.70;;
18649;SDS011;9454;53.516;10.478;2022-09-09T03:18:36;12.18;;;7.50;;
18649;SDS011;9454;53.516;10.478;2022-09-09T03:21:40;11.07;;;7.07;;
18649;SDS011;9454;53.516;10.478;2022-09-09T03:24:42;13.35;;;6.57;;
18649;SDS011;9454;53.516;10.478;2022-09-09T03:27:45;10.65;;;6.13;;
18649;SDS011;9454;53.516;10.478;2022-09-09T03:30:47;18.73;;;7.10;;
18649;SDS011;9454;53.516;10.478;2022-09-09T03:33:53;20.48;;;6.90;;
18649;SDS011;9454;53.516;10.478;2022-09-09T03:36:57;10.45;;;6.72;;
18649;SDS011;9454;53.516;10.478;2022-09-09T03:40:02;14.38;;;7.32;;
18649;SDS011;9454;53.516;10.478;2022-09-09T03:43:05;9.73;;;6.03;;
18649;SDS011;9454;53.516;10.478;2022-09-09T03:46:08;12.15;;;6.38;;
18649;SDS011;9454;53.516;10.478;2022-09-09T03:49:25;10.05;;;5.80;;
18649;SDS011;9454;53.516;10.478;2022-09-09T03:52:31;10.45;;;6.03;;
18649;SDS011;9454;53.516;10.478;2022-09-09T03:55:37;11.05;;;6.22;;
18649;SDS011;9454;53.516;10.478;2022-09-09T03:58:39;15.02;;;6.88;;
18649;SDS011;9454;53.516;10.478;2022-09-09T04:01:50;10.15;;;5.78;;
18649;SDS011;9454;53.516;10.478;2022-09-09T04:04:53;9.98;;;6.28;;
18649;SDS011;9454;53.516;10.478;2022-09-09T04:07:57;18.52;;;6.55;;
18649;SDS011;9454;53.516;10.478;2022-09-09T04:11:00;12.38;;;6.53;;
18649;SDS011;9454;53.516;10.478;2022-09-09T04:18:42;10.88;;;6.25;;
18649;SDS011;9454;53.516;10.478;2022-09-09T04:25:28;10.20;;;6.82;;
18649;SDS011;9454;53.516;10.478;2022-09-09T04:28:32;12.20;;;6.85;;
18649;SDS011;9454;53.516;10.478;2022-09-09T04:31:38;10.15;;;5.90;;
18649;SDS011;9454;53.516;10.478;2022-09-09T04:34:43;11.18;;;6.25;;
18649;SDS011;9454;53.516;10.478;2022-09-09T04:37:46;13.98;;;6.18;;
18649;SDS011;9454;53.516;10.478;2022-09-09T04:40:53;12.50;;;6.03;;
18649;SDS011;9454;53.516;10.478;2022-09-09T04:43:56;10.13;;;6.72;;
18649;SDS011;9454;53.516;10.478;2022-09-09T04:47:00;8.70;;;5.32;;
18649;SDS011;9454;53.516;10.478;2022-09-09T04:55:06;9.43;;;6.05;;
18649;SDS011;9454;53.516;10.478;2022-09-09T04:58:10;11.98;;;6.18;;
18649;SDS011;9454;53.516;10.478;2022-09-09T05:01:15;8.55;;;5.40;;
18649;SDS011;9454;53.516;10.478;2022-09-09T05:04:19;8.20;;;5.32;;
18649;SDS011;9454;53.516;10.478;2022-09-09T05:07:22;11.65;;;5.57;;
18649;SDS011;9454;53.516;10.478;2022-09-09T05:10:25;11.45;;;5.43;;
18649;SDS011;9454;53.516;10.478;2022-09-09T05:13:29;8.30;;;4.97;;
18649;SDS011;9454;53.516;10.478;2022-09-09T05:16:34;9.88;;;6.03;;
18649;SDS011;9454;53.516;10.478;2022-09-09T05:19:45;8.27;;;4.90;;
18649;SDS011;9454;53.516;10.478;2022-09-09T05:22:48;10.35;;;5.15;;
18649;SDS011;9454;53.516;10.478;2022-09-09T05:25:55;8.55;;;4.53;;
18649;SDS011;9454;53.516;10.478;2022-09-09T05:29:01;8.27;;;5.00;;
18649;SDS011;9454;53.516;10.478;2022-09-09T05:32:14;9.00;;;5.05;;
18649;SDS011;9454;53.516;10.478;2022-09-09T05:35:22;9.77;;;5.13;;
18649;SDS011;9454;53.516;10.478;2022-09-09T05:38:33;7.65;;;4.88;;
18649;SDS011;9454;53.516;10.478;2022-09-09T05:41:44;12.38;;;5.20;;
18649;SDS011;9454;53.516;10.478;2022-09-09T05:55:18;6.28;;;4.00;;
18649;SDS011;9454;53.516;10.478;2022-09-09T05:58:27;9.68;;;4.38;;
18649;SDS011;9454;53.516;10.478;2022-09-09T06:01:34;7.72;;;4.50;;
18649;SDS011;9454;53.516;10.478;2022-09-09T06:04:36;8.15;;;5.10;;
18649;SDS011;9454;53.516;10.478;2022-09-09T06:07:39;9.77;;;4.93;;
18649;SDS011;9454;53.516;10.478;2022-09-09T06:10:45;7.97;;;4.68;;
18649;SDS011;9454;53.516;10.478;2022-09-09T06:14:39;6.75;;;3.90;;
18649;SDS011;9454;53.516;10.478;2022-09-09T06:17:53;12.82;;;4.00;;
18649;SDS011;9454;53.516;10.478;2022-09-09T06:20:56;6.07;;;3.90;;
18649;SDS011;9454;53.516;10.478;2022-09-09T06:24:00;4.57;;;3.50;;
18649;SDS011;9454;53.516;10.478;2022-09-09T06:27:05;7.25;;;3.47;;
18649;SDS011;9454;53.516;10.478;2022-09-09T06:30:14;6.53;;;3.60;;
18649;SDS011;9454;53.516;10.478;2022-09-09T06:33:25;8.20;;;3.33;;
18649;SDS011;9454;53.516;10.478;2022-09-09T06:36:35;16.50;;;3.80;;
18649;SDS011;9454;53.516;10.478;2022-09-09T06:39:42;6.40;;;2.83;;
18649;SDS011;9454;53.516;10.478;2022-09-09T06:42:47;3.78;;;2.70;;
18649;SDS011;9454;53.516;10.478;2022-09-09T06:46:05;7.15;;;2.45;;
18649;SDS011;9454;53.516;10.478;2022-09-09T06:49:09;3.92;;;2.50;;
18649;SDS011;9454;53.516;10.478;2022-09-09T06:52:13;4.78;;;2.50;;
18649;SDS011;9454;53.516;10.478;2022-09-09T06:55:16;6.05;;;2.38;;
18649;SDS011;9454;53.516;10.478;2022-09-09T06:58:22;4.50;;;2.47;;
18649;SDS011;9454;53.516;10.478;2022-09-09T07:01:30;9.82;;;2.30;;
18649;SDS011;9454;53.516;10.478;2022-09-09T07:04:36;4.68;;;2.22;;
18649;SDS011;9454;53.516;10.478;2022-09-09T07:07:39;3.17;;;2.15;;
18649;SDS011;9454;53.516;10.478;2022-09-09T07:10:43;4.85;;;2.05;;
18649;SDS011;9454;53.516;10.478;2022-09-09T07:13:49;3.90;;;2.05;;
18649;SDS011;9454;53.516;10.478;2022-09-09T07:16:52;4.57;;;2.13;;
18649;SDS011;9454;53.516;10.478;2022-09-09T07:20:08;2.95;;;1.90;;
18649;SDS011;9454;53.516;10.478;2022-09-09T07:23:13;4.93;;;2.10;;
18649;SDS011;9454;53.516;10.478;2022-09-09T07:26:19;8.40;;;2.15;;
18649;SDS011;9454;53.516;10.478;2022-09-09T07:29:24;3.72;;;1.83;;
18649;SDS011;9454;53.516;10.478;2022-09-09T07:32:33;11.10;;;2.03;;
18649;SDS011;9454;53.516;10.478;2022-09-09T07:35:39;5.20;;;1.60;;
18649;SDS011;9454;53.516;10.478;2022-09-09T07:38:44;3.75;;;1.73;;
18649;SDS011;9454;53.516;10.478;2022-09-09T07:41:51;2.17;;;1.88;;
18649;SDS011;9454;53.516;10.478;2022-09-09T07:44:58;6.93;;;1.70;;
18649;SDS011;9454;53.516;10.478;2022-09-09T07:48:01;4.57;;;1.67;;
18649;SDS011;9454;53.516;10.478;2022-09-09T07:51:06;2.13;;;1.40;;
18649;SDS011;9454;53.516;10.478;2022-09-09T07:54:10;5.70;;;1.73;;
18649;SDS011;9454;53.516;10.478;2022-09-09T07:57:19;6.30;;;1.40;;
18649;SDS011;9454;53.516;10.478;2022-09-09T08:00:38;2.97;;;1.73;;
18649;SDS011;9454;53.516;10.478;2022-09-09T08:03:45;3.35;;;1.23;;
18649;SDS011;9454;53.516;10.478;2022-09-09T08:06:50;3.40;;;1.52;;
18649;SDS011;9454;53.516;10.478;2022-09-09T08:09:55;5.05;;;1.40;;
18649;SDS011;9454;53.516;10.478;2022-09-09T08:13:05;3.33;;;1.50;;
18649;SDS011;9454;53.516;10.478;2022-09-09T08:20:13;4.05;;;1.40;;
18649;SDS011;9454;53.516;10.478;2022-09-09T08:23:16;6.38;;;1.45;;
18649;SDS011;9454;53.516;10.478;2022-09-09T08:26:20;3.15;;;1.50;;
18649;SDS011;9454;53.516;10.478;2022-09-09T08:29:24;2.55;;;1.27;;
18649;SDS011;9454;53.516;10.478;2022-09-09T08:32:48;2.63;;;1.38;;
18649;SDS011;9454;53.516;10.478;2022-09-09T08:35:57;2.78;;;1.55;;
18649;SDS011;9454;53.516;10.478;2022-09-09T08:39:00;3.15;;;1.13;;
18649;SDS011;9454;53.516;10.478;2022-09-09T08:42:19;9.07;;;1.80;;
18649;SDS011;9454;53.516;10.478;2022-09-09T08:45:29;6.82;;;1.20;;
18649;SDS011;9454;53.516;10.478;2022-09-09T08:48:42;3.85;;;1.35;;
18649;SDS011;9454;53.516;10.478;2022-09-09T08:51:49;6.60;;;1.27;;
18649;SDS011;9454;53.516;10.478;2022-09-09T08:54:56;4.50;;;1.58;;
18649;SDS011;9454;53.516;10.478;2022-09-09T08:58:02;5.65;;;1.33;;
18649;SDS011;9454;53.516;10.478;2022-09-09T09:01:16;4.85;;;1.20;;
18649;SDS011;9454;53.516;10.478;2022-09-09T09:04:32;6.22;;;1.40;;
18649;SDS011;9454;53.516;10.478;2022-09-09T09:07:42;8.75;;;1.15;;
18649;SDS011;9454;53.516;10.478;2022-09-09T09:10:53;4.50;;;1.60;;
18649;SDS011;9454;53.516;10.478;2022-09-09T09:14:00;6.57;;;1.27;;
18649;SDS011;9454;53.516;10.478;2022-09-09T09:17:06;6.32;;;1.08;;
18649;SDS011;9454;53.516;10.478;2022-09-09T09:20:12;3.78;;;1.30;;
18649;SDS011;9454;53.516;10.478;2022-09-09T09:23:22;1.55;;;1.02;;
18649;SDS011;9454;53.516;10.478;2022-09-09T09:26:32;2.00;;;1.10;;
18649;SDS011;9454;53.516;10.478;2022-09-09T09:29:37;3.67;;;1.10;;
18649;SDS011;9454;53.516;10.478;2022-09-09T09:33:05;3.38;;;1.00;;
18649;SDS011;9454;53.516;10.478;2022-09-09T09:36:16;2.45;;;1.05;;
18649;SDS011;9454;53.516;10.478;2022-09-09T09:39:25;4.55;;;1.20;;
18649;SDS011;9454;53.516;10.478;2022-09-09T09:42:53;2.83;;;1.13;;
18649;SDS011;9454;53.516;10.478;2022-09-09T09:46:00;2.78;;;0.90;;
18649;SDS011;9454;53.516;10.478;2022-09-09T09:49:20;2.35;;;1.00;;
18649;SDS011;9454;53.516;10.478;2022-09-09T09:52:23;4.57;;;1.25;;
18649;SDS011;9454;53.516;10.478;2022-09-09T09:55:29;0.90;;;0.70;;
18649;SDS011;9454;53.516;10.478;2022-09-09T09:58:37;4.68;;;1.35;;
18649;SDS011;9454;53.516;10.478;2022-09-09T10:01:52;5.95;;;1.00;;
18649;SDS011;9454;53.516;10.478;2022-09-09T10:05:01;4.35;;;0.95;;
18649;SDS011;9454;53.516;10.478;2022-09-09T10:08:13;5.43;;;1.08;;
18649;SDS011;9454;53.516;10.478;2022-09-09T10:11:21;6.13;;;1.02;;
18649;SDS011;9454;53.516;10.478;2022-09-09T10:14:28;8.95;;;1.15;;
18649;SDS011;9454;53.516;10.478;2022-09-09T10:17:35;2.88;;;0.90;;
18649;SDS011;9454;53.516;10.478;2022-09-09T10:20:40;5.55;;;1.15;;
18649;SDS011;9454;53.516;10.478;2022-09-09T10:23:50;5.82;;;1.27;;
18649;SDS011;9454;53.516;10.478;2022-09-09T10:26:58;5.75;;;0.90;;
18649;SDS011;9454;53.516;10.478;2022-09-09T10:30:06;5.40;;;1.10;;
18649;SDS011;9454;53.516;10.478;2022-09-09T10:33:20;5.00;;;0.80;;
18649;SDS011;9454;53.516;10.478;2022-09-09T10:36:25;3.53;;;0.85;;
18649;SDS011;9454;53.516;10.478;2022-09-09T10:39:34;8.75;;;0.95;;
18649;SDS011;9454;53.516;10.478;2022-09-09T10:42:45;2.38;;;0.93;;
18649;SDS011;9454;53.516;10.478;2022-09-09T10:45:50;2.67;;;0.90;;
18649;SDS011;9454;53.516;10.478;2022-09-09T10:49:02;6.30;;;0.88;;
18649;SDS011;9454;53.516;10.478;2022-09-09T10:52:11;2.63;;;0.80;;
18649;SDS011;9454;53.516;10.478;2022-09-09T10:55:18;7.43;;;0.98;;
18649;SDS011;9454;53.516;10.478;2022-09-09T10:58:24;2.17;;;0.80;;
18649;SDS011;9454;53.516;10.478;2022-09-09T11:01:28;3.10;;;0.98;;
18649;SDS011;9454;53.516;10.478;2022-09-09T11:04:33;3.53;;;1.13;;
18649;SDS011;9454;53.516;10.478;2022-09-09T11:07:40;1.27;;;0.75;;
18649;SDS011;9454;53.516;10.478;2022-09-09T11:10:48;2.65;;;0.77;;
18649;SDS011;9454;53.516;10.478;2022-09-09T11:13:55;7.07;;;1.23;;
18649;SDS011;9454;53.516;10.478;2022-09-09T11:17:00;2.40;;;1.13;;
18649;SDS011;9454;53.516;10.478;2022-09-09T11:20:05;3.80;;;1.15;;
18649;SDS011;9454;53.516;10.478;2022-09-09T11:23:11;2.90;;;1.02;;
18649;SDS011;9454;53.516;10.478;2022-09-09T11:26:16;2.20;;;0.88;;
18649;SDS011;9454;53.516;10.478;2022-09-09T11:29:31;2.15;;;0.85;;
18649;SDS011;9454;53.516;10.478;2022-09-09T11:32:47;4.50;;;0.80;;
18649;SDS011;9454;53.516;10.478;2022-09-09T11:36:01;1.38;;;0.68;;
18649;SDS011;9454;53.516;10.478;2022-09-09T11:39:17;3.50;;;0.73;;
18649;SDS011;9454;53.516;10.478;2022-09-09T11:42:28;1.45;;;0.70;;
18649;SDS011;9454;53.516;10.478;2022-09-09T11:45:38;6.15;;;0.70;;
18649;SDS011;9454;53.516;10.478;2022-09-09T11:48:42;1.88;;;0.80;;
18649;SDS011;9454;53.516;10.478;2022-09-09T11:51:47;2.00;;;0.70;;
18649;SDS011;9454;53.516;10.478;2022-09-09T11:54:50;2.45;;;0.75;;
18649;SDS011;9454;53.516;10.478;2022-09-09T11:57:57;2.08;;;0.77;;
18649;SDS011;9454;53.516;10.478;2022-09-09T12:01:12;2.55;;;0.73;;
18649;SDS011;9454;53.516;10.478;2022-09-09T12:07:36;2.30;;;0.70;;
18649;SDS011;9454;53.516;10.478;2022-09-09T12:15:46;1.10;;;0.57;;
18649;SDS011;9454;53.516;10.478;2022-09-09T12:19:02;7.32;;;0.98;;
18649;SDS011;9454;53.516;10.478;2022-09-09T12:22:09;7.05;;;0.85;;
18649;SDS011;9454;53.516;10.478;2022-09-09T12:25:19;5.68;;;0.90;;
18649;SDS011;9454;53.516;10.478;2022-09-09T12:28:31;3.90;;;0.95;;
18649;SDS011;9454;53.516;10.478;2022-09-09T12:31:40;2.10;;;0.85;;
18649;SDS011;9454;53.516;10.478;2022-09-09T12:34:51;4.18;;;0.90;;
18649;SDS011;9454;53.516;10.478;2022-09-09T12:37:57;4.55;;;0.90;;
18649;SDS011;9454;53.516;10.478;2022-09-09T12:41:03;1.55;;;0.93;;
18649;SDS011;9454;53.516;10.478;2022-09-09T12:44:06;2.83;;;1.00;;
18649;SDS011;9454;53.516;10.478;2022-09-09T12:47:09;3.55;;;1.40;;
18649;SDS011;9454;53.516;10.478;2022-09-09T12:50:19;6.18;;;0.80;;
18649;SDS011;9454;53.516;10.478;2022-09-09T12:53:24;2.60;;;0.82;;
18649;SDS011;9454;53.516;10.478;2022-09-09T12:56:28;7.32;;;0.93;;
18649;SDS011;9454;53.516;10.478;2022-09-09T12:59:35;3.10;;;1.23;;
18649;SDS011;9454;53.516;10.478;2022-09-09T13:02:45;3.47;;;1.10;;
18649;SDS011;9454;53.516;10.478;2022-09-09T13:05:50;1.90;;;1.13;;
18649;SDS011;9454;53.516;10.478;2022-09-09T13:08:56;3.95;;;1.17;;
18649;SDS011;9454;53.516;10.478;2022-09-09T13:11:59;2.97;;;1.13;;
18649;SDS011;9454;53.516;10.478;2022-09-09T13:15:09;2.55;;;0.93;;
18649;SDS011;9454;53.516;10.478;2022-09-09T13:18:13;2.22;;;0.82;;
18649;SDS011;9454;53.516;10.478;2022-09-09T13:21:17;2.08;;;0.85;;
18649;SDS011;9454;53.516;10.478;2022-09-09T13:24:25;3.72;;;1.05;;
18649;SDS011;9454;53.516;10.478;2022-09-09T13:27:30;4.78;;;0.70;;
18649;SDS011;9454;53.516;10.478;2022-09-09T13:30:33;3.40;;;0.88;;
18649;SDS011;9454;53.516;10.478;2022-09-09T13:33:38;2.45;;;0.80;;
18649;SDS011;9454;53.516;10.478;2022-09-09T13:36:46;4.72;;;1.13;;
18649;SDS011;9454;53.516;10.478;2022-09-09T13:39:54;2.15;;;0.80;;
18649;SDS011;9454;53.516;10.478;2022-09-09T13:43:21;0.60;;;0.60;;
18649;SDS011;9454;53.516;10.478;2022-09-09T13:46:25;0.73;;;0.50;;
18649;SDS011;9454;53.516;10.478;2022-09-09T13:49:31;3.15;;;0.60;;
18649;SDS011;9454;53.516;10.478;2022-09-09T13:52:36;1.55;;;0.70;;
18649;SDS011;9454;53.516;10.478;2022-09-09T13:55:38;2.00;;;0.70;;
18649;SDS011;9454;53.516;10.478;2022-09-09T13:58:41;6.38;;;0.93;;
18649;SDS011;9454;53.516;10.478;2022-09-09T14:01:46;0.70;;;0.70;;
18649;SDS011;9454;53.516;10.478;2022-09-09T14:04:50;2.55;;;0.70;;
18649;SDS011;9454;53.516;10.478;2022-09-09T14:07:58;1.63;;;0.60;;
18649;SDS011;9454;53.516;10.478;2022-09-09T14:11:01;4.70;;;0.90;;
18649;SDS011;9454;53.516;10.478;2022-09-09T14:14:04;4.22;;;0.80;;
18649;SDS011;9454;53.516;10.478;2022-09-09T14:17:07;2.15;;;0.77;;
18649;SDS011;9454;53.516;10.478;2022-09-09T14:20:10;4.53;;;0.80;;
18649;SDS011;9454;53.516;10.478;2022-09-09T14:23:17;1.25;;;0.73;;
18649;SDS011;9454;53.516;10.478;2022-09-09T14:26:23;0.80;;;0.50;;
18649;SDS011;9454;53.516;10.478;2022-09-09T14:29:27;1.80;;;0.73;;
18649;SDS011;9454;53.516;10.478;2022-09-09T14:32:30;2.03;;;0.73;;
18649;SDS011;9454;53.516;10.478;2022-09-09T14:35:32;2.72;;;1.00;;
18649;SDS011;9454;53.516;10.478;2022-09-09T14:38:37;2.28;;;0.60;;
18649;SDS011;9454;53.516;10.478;2022-09-09T14:41:40;1.17;;;0.68;;
18649;SDS011;9454;53.516;10.478;2022-09-09T14:44:43;1.33;;;0.80;;
18649;SDS011;9454;53.516;10.478;2022-09-09T14:47:45;1.73;;;0.70;;
18649;SDS011;9454;53.516;10.478;2022-09-09T14:50:48;2.90;;;1.00;;
18649;SDS011;9454;53.516;10.478;2022-09-09T14:53:52;11.20;;;1.27;;
18649;SDS011;9454;53.516;10.478;2022-09-09T14:56:55;8.40;;;1.48;;
18649;SDS011;9454;53.516;10.478;2022-09-09T14:59:59;7.90;;;1.17;;
18649;SDS011;9454;53.516;10.478;2022-09-09T15:03:07;2.22;;;0.93;;
18649;SDS011;9454;53.516;10.478;2022-09-09T15:06:11;4.50;;;0.90;;
18649;SDS011;9454;53.516;10.478;2022-09-09T15:09:16;3.22;;;0.88;;
18649;SDS011;9454;53.516;10.478;2022-09-09T15:12:21;2.80;;;0.95;;
18649;SDS011;9454;53.516;10.478;2022-09-09T15:15:23;5.18;;;1.10;;
18649;SDS011;9454;53.516;10.478;2022-09-09T15:18:27;4.45;;;0.75;;
18649;SDS011;9454;53.516;10.478;2022-09-09T15:21:31;6.32;;;0.90;;
18649;SDS011;9454;53.516;10.478;2022-09-09T15:24:35;4.25;;;1.10;;
18649;SDS011;9454;53.516;10.478;2022-09-09T15:27:39;2.53;;;0.90;;
18649;SDS011;9454;53.516;10.478;2022-09-09T15:30:43;2.35;;;0.77;;
18649;SDS011;9454;53.516;10.478;2022-09-09T15:33:47;5.95;;;1.13;;
18649;SDS011;9454;53.516;10.478;2022-09-09T15:36:49;1.48;;;0.60;;
18649;SDS011;9454;53.516;10.478;2022-09-09T15:39:54;3.85;;;0.80;;
18649;SDS011;9454;53.516;10.478;2022-09-09T15:42:56;2.17;;;0.93;;
18649;SDS011;9454;53.516;10.478;2022-09-09T15:46:00;1.90;;;0.80;;
18649;SDS011;9454;53.516;10.478;2022-09-09T15:49:07;2.58;;;0.93;;
18649;SDS011;9454;53.516;10.478;2022-09-09T15:52:11;3.28;;;0.82;;
18649;SDS011;9454;53.516;10.478;2022-09-09T15:55:15;4.78;;;1.00;;
18649;SDS011;9454;53.516;10.478;2022-09-09T15:58:19;2.08;;;0.77;;
18649;SDS011;9454;53.516;10.478;2022-09-09T16:01:22;2.53;;;0.82;;
18649;SDS011;9454;53.516;10.478;2022-09-09T16:04:27;2.88;;;0.80;;
18649;SDS011;9454;53.516;10.478;2022-09-09T16:07:34;5.43;;;0.80;;
18649;SDS011;9454;53.516;10.478;2022-09-09T16:10:42;2.35;;;1.00;;
18649;SDS011;9454;53.516;10.478;2022-09-09T16:13:45;0.77;;;0.65;;
18649;SDS011;9454;53.516;10.478;2022-09-09T16:16:52;3.45;;;0.90;;
18649;SDS011;9454;53.516;10.478;2022-09-09T16:19:55;5.07;;;0.90;;
18649;SDS011;9454;53.516;10.478;2022-09-09T16:22:58;2.50;;;0.82;;
18649;SDS011;9454;53.516;10.478;2022-09-09T16:26:04;1.98;;;1.00;;
18649;SDS011;9454;53.516;10.478;2022-09-09T16:29:07;4.85;;;0.80;;
18649;SDS011;9454;53.516;10.478;2022-09-09T16:32:10;2.67;;;0.85;;
18649;SDS011;9454;53.516;10.478;2022-09-09T16:35:13;4.63;;;1.02;;
18649;SDS011;9454;53.516;10.478;2022-09-09T16:38:15;3.30;;;1.05;;
18649;SDS011;9454;53.516;10.478;2022-09-09T16:41:19;3.30;;;0.85;;
18649;SDS011;9454;53.516;10.478;2022-09-09T16:44:22;3.05;;;1.15;;
18649;SDS011;9454;53.516;10.478;2022-09-09T16:47:24;1.58;;;0.82;;
18649;SDS011;9454;53.516;10.478;2022-09-09T16:50:27;4.07;;;0.98;;
18649;SDS011;9454;53.516;10.478;2022-09-09T16:53:33;2.20;;;1.00;;
18649;SDS011;9454;53.516;10.478;2022-09-09T16:56:53;2.63;;;1.00;;
18649;SDS011;9454;53.516;10.478;2022-09-09T16:59:57;0.73;;;0.70;;
18649;SDS011;9454;53.516;10.478;2022-09-09T17:03:00;7.05;;;1.00;;
18649;SDS011;9454;53.516;10.478;2022-09-09T17:06:06;5.38;;;1.13;;
18649;SDS011;9454;53.516;10.478;2022-09-09T17:09:13;3.70;;;1.00;;
18649;SDS011;9454;53.516;10.478;2022-09-09T17:12:17;8.10;;;1.05;;
18649;SDS011;9454;53.516;10.478;2022-09-09T17:15:19;3.15;;;1.20;;
18649;SDS011;9454;53.516;10.478;2022-09-09T17:18:25;2.53;;;1.20;;
18649;SDS011;9454;53.516;10.478;2022-09-09T17:21:29;3.70;;;1.20;;
18649;SDS011;9454;53.516;10.478;2022-09-09T17:24:32;2.13;;;1.10;;
18649;SDS011;9454;53.516;10.478;2022-09-09T17:27:37;4.97;;;1.27;;
18649;SDS011;9454;53.516;10.478;2022-09-09T17:30:39;2.92;;;1.15;;
18649;SDS011;9454;53.516;10.478;2022-09-09T17:33:43;3.15;;;1.25;;
18649;SDS011;9454;53.516;10.478;2022-09-09T17:36:47;6.32;;;1.50;;
18649;SDS011;9454;53.516;10.478;2022-09-09T17:39:50;4.72;;;1.08;;
18649;SDS011;9454;53.516;10.478;2022-09-09T17:42:55;3.40;;;0.90;;
18649;SDS011;9454;53.516;10.478;2022-09-09T17:46:04;2.97;;;1.13;;
18649;SDS011;9454;53.516;10.478;2022-09-09T17:49:10;6.30;;;1.05;;
18649;SDS011;9454;53.516;10.478;2022-09-09T17:52:23;9.13;;;1.10;;
18649;SDS011;9454;53.516;10.478;2022-09-09T17:55:25;3.10;;;1.13;;
18649;SDS011;9454;53.516;10.478;2022-09-09T17:58:30;3.35;;;1.10;;
18649;SDS011;9454;53.516;10.478;2022-09-09T18:01:33;5.50;;;0.98;;
18649;SDS011;9454;53.516;10.478;2022-09-09T18:04:36;1.75;;;1.33;;
18649;SDS011;9454;53.516;10.478;2022-09-09T18:07:39;5.75;;;1.40;;
18649;SDS011;9454;53.516;10.478;2022-09-09T18:10:41;5.57;;;1.20;;
18649;SDS011;9454;53.516;10.478;2022-09-09T18:13:48;1.80;;;1.25;;
18649;SDS011;9454;53.516;10.478;2022-09-09T18:16:54;7.75;;;1.38;;
18649;SDS011;9454;53.516;10.478;2022-09-09T18:19:58;4.30;;;1.48;;
18649;SDS011;9454;53.516;10.478;2022-09-09T18:23:01;4.90;;;1.60;;
18649;SDS011;9454;53.516;10.478;2022-09-09T18:26:06;3.10;;;1.10;;
18649;SDS011;9454;53.516;10.478;2022-09-09T18:29:12;2.70;;;1.50;;
18649;SDS011;9454;53.516;10.478;2022-09-09T18:32:16;2.58;;;1.23;;
18649;SDS011;9454;53.516;10.478;2022-09-09T18:35:23;1.50;;;1.05;;
18649;SDS011;9454;53.516;10.478;2022-09-09T18:38:25;2.08;;;1.60;;
18649;SDS011;9454;53.516;10.478;2022-09-09T18:41:29;9.68;;;1.75;;
18649;SDS011;9454;53.516;10.478;2022-09-09T18:44:36;3.88;;;1.77;;
18649;SDS011;9454;53.516;10.478;2022-09-09T18:47:39;7.63;;;1.25;;
18649;SDS011;9454;53.516;10.478;2022-09-09T18:50:42;7.40;;;1.05;;
18649;SDS011;9454;53.516;10.478;2022-09-09T18:53:48;1.42;;;1.10;;
18649;SDS011;9454;53.516;10.478;2022-09-09T18:56:53;11.98;;;1.20;;
18649;SDS011;9454;53.516;10.478;2022-09-09T18:59:59;1.10;;;1.00;;
18649;SDS011;9454;53.516;10.478;2022-09-09T19:03:03;3.38;;;1.15;;
18649;SDS011;9454;53.516;10.478;2022-09-09T19:06:10;0.95;;;0.90;;
18649;SDS011;9454;53.516;10.478;2022-09-09T19:09:17;4.35;;;1.40;;
18649;SDS011;9454;53.516;10.478;2022-09-09T19:12:20;2.08;;;1.30;;
18649;SDS011;9454;53.516;10.478;2022-09-09T19:15:25;4.32;;;1.20;;
18649;SDS011;9454;53.516;10.478;2022-09-09T19:18:33;5.32;;;1.30;;
18649;SDS011;9454;53.516;10.478;2022-09-09T19:21:41;1.75;;;0.80;;
18649;SDS011;9454;53.516;10.478;2022-09-09T19:24:45;5.68;;;0.90;;
18649;SDS011;9454;53.516;10.478;2022-09-09T19:27:49;1.67;;;1.08;;